x

Middle Nomad (46004) Wave Buoy

10:00am - Mon 4th May 2015 All times are PDT. -7 hours from GMT.

  • Sig Wave height 8.2ft
  • Peak Period 12s
  • Wind
    9mph, 11mph gusts
  • Sea Temp 49°f
  • Air Temp 46°f
  • Sea Pressure 1007mb
  • Middle Nomad
  • Middle Nomad

More Historic Weather Station data

Upgrade to MSW Pro to gain access to the past 30 days of data for over 8000 Wavebouys and Weather Stations around the globe.

Join Pro

Comparision Forecast

View Surf forecast
   
Mon 05/04 10:00am 8ft 12s 9 11 mph 1007mb 49f 46f
9:00am 9ft 10s 16 18 mph 1006.5mb 49f 46f
8:00am 9.5ft 12s 9 11 mph 1006.1mb 49f 46f
7:00am 9.5ft 13s 9 11 mph 1005.7mb 49f 45f
6:00am 10ft 12s 11 13 mph 1005.3mb 49f 45f
5:00am 10ft 12s 7 9 mph 1005.3mb 49f 46f
4:00am 10.5ft 13s 4 9 mph 1005mb 49f 46f
3:00am 10.5ft 13s 4 7 mph 1005mb 49f 46f
2:00am 11ft 12s 4 7 mph 1005.1mb 49f 46f
1:00am 10ft 13s 4 9 mph 1005.1mb 49f 46f
12:00am 10ft 13s 4 9 mph 1005.3mb 49f 46f
Sun 05/03 11:00pm 11ft 14s 9 11 mph 1005.7mb 49f 46f
10:00pm 11ft 14s 13 18 mph 1005.8mb 49f 46f
8:00pm 10.5ft 14s 11 13 mph 1006.6mb 49f 46f
7:00pm 9ft 15s 13 18 mph 1007mb 49f 46f
6:00pm 8.5ft 14s 13 16 mph 1007.4mb 49f 48f
3:00pm 5ft 6s 13
mph
1009.9mb 49f 48f
2:00pm 4.5ft 6s 9 11 mph 1010mb 49f 48f
1:00pm 5ft 7s 16 18 mph 1010.8mb 49f 47f
12:00pm 4.5ft 6s 13 16 mph 1011mb 49f 47f
11:00am 5ft 6s 11 13 mph 1011.3mb 49f 47f
10:00am 5ft 6s 9 13 mph 1011.3mb 49f 47f
9:00am 5ft 6s 11 16 mph 1011.4mb 49f 47f
8:00am 5ft 6s 18 22 mph 1011.4mb 49f 49f
7:00am 5ft 6s 20 25 mph 1011.8mb 49f 48f
6:00am 5ft 6s 18 20 mph 1012.8mb 49f 49f
5:00am 5ft 6s 16 20 mph 1013.6mb 49f 49f
4:00am 5.5ft 6s 16 20 mph 1014.3mb 49f 49f
3:00am 5.5ft 5s 18 22 mph 1015.1mb 49f 49f
2:00am 5ft 10s 22 29 mph 1015.8mb 49f 47f
1:00am 5ft 5s 20 25 mph 1016.7mb 49f 47f
12:00am 4.5ft 9s 20 25 mph 1017.6mb 49f 47f
Sat 05/02 11:00pm 4.5ft 11s 20 22 mph 1018.5mb 49f 47f
10:00pm 4.5ft 10s 18 22 mph 1019.5mb 49f 47f
9:00pm 5ft 8s 18 22 mph 1019.8mb 49f 48f
8:00pm 4.5ft 9s 16 18 mph 1020.4mb 49f 48f
7:00pm 5ft 9s 13 18 mph 1021.1mb 49f 48f
6:00pm 5ft 11s 13 16 mph 1022mb 49f 48f
5:00pm 5ft 10s 13 16 mph 1022.7mb 49f 47f
4:00pm 5.5ft 9s 13 16 mph 1023.5mb 49f 47f
3:00pm 6ft 10s 11 13 mph 1023.9mb 49f 47f
2:00pm 6ft 10s 9 11 mph 1024.2mb 49f 47f
1:00pm 6.5ft 10s 9 11 mph 1024.7mb 49f 47f
12:00pm 6ft 10s 7 9 mph 1025mb 49f 47f
11:00am 6ft 11s 4 7 mph 1025mb 49f 46f
10:00am 7ft 11s 7 11 mph 1025mb 49f 45f
9:00am 6.5ft 11s 4 9 mph 1025.3mb 49f 45f
8:00am 7ft 12s 9 13 mph 1025.3mb 49f 44f
7:00am 7.5ft 11s 9 11 mph 1025.2mb 49f 46f
6:00am 7.5ft 8s 9 11 mph 1025.3mb 49f 46f
5:00am 8ft 10s 11 13 mph 1025.3mb 49f 46f
4:00am 8ft 12s 11 13 mph 1025.4mb 49f 46f
3:00am 8ft 10s 11 13 mph 1025.7mb 49f 46f
2:00am 9ft 12s 11 13 mph 1025.8mb 49f 47f
1:00am 9ft 10s 13 16 mph 1025.7mb 49f 47f
12:00am 9ft 11s 13 18 mph 1025.6mb 49f 47f
Fri 05/01 11:00pm 9.5ft 10s 13 16 mph 1025.8mb 49f 47f
10:00pm 10ft 10s 13 18 mph 1025.5mb 49f 47f
9:00pm 10ft 11s 13 18 mph 1025.2mb 49f 47f
7:00pm 11ft 11s 18 20 mph 1024.8mb 49f 47f
6:00pm 10.5ft 10s 16 20 mph 1024.9mb 49f 47f
5:00pm 12ft 10s 18 22 mph 1024.8mb 49f 47f
4:00pm 11.5ft 11s 18 22 mph 1024.8mb 49f 47f
3:00pm 11ft 11s 18 25 mph 1024.6mb 49f 47f
2:00pm 10ft 11s 18 22 mph 1024.1mb 49f 47f
1:00pm 11ft 10s 20 25 mph 1023.8mb 49f 47f
12:00pm 12ft 11s 20 22 mph 1023.3mb 49f 47f
11:00am 11ft 11s 20 25 mph 1022.9mb 49f 47f
10:00am 11ft 8s 20 27 mph 1022.5mb 49f 47f
9:00am 11ft 12s 22 27 mph 1022.2mb 49f 46f
8:00am 11.5ft 11s 22 27 mph 1021.7mb 49f 47f
7:00am 12ft 11s 20 27 mph 1021.3mb 48f 46f
6:00am 11.5ft 12s 22 27 mph 1021mb 48f 46f
5:00am 11ft 11s 22 25 mph 1020.6mb 48f 46f
4:00am 10.5ft 11s 25 29 mph 1020.2mb 48f 46f
3:00am 10ft 11s 20 25 mph 1020.1mb 48f 46f
2:00am 9.5ft 11s 20 25 mph 1019.9mb 48f 46f
1:00am 9.5ft 11s 22 31 mph 1019.4mb 49f 46f
12:00am 9ft 9s 22 27 mph 1019mb 49f 46f
Thu 04/30 11:00pm 10.5ft 10s 22 29 mph 1018.9mb 48f 47f
10:00pm  -   -  22
mph
- - -
9:00pm 10ft 10s 20 25 mph 1017.8mb 49f 46f
8:00pm 10ft 10s 20 25 mph 1017.4mb 49f 47f
7:00pm 11ft 10s 22 27 mph 1017.1mb 49f 47f